Hatsu Excel — VSXV3 — position and weather

sailwx.info

Track history (hours):
 
Tides and Currents Weather Stations Pressure Air Temp Water Temp Dewpoint Dewpoint Depression Visibility Wind Speed Wind Dir Waves Ship Positions

Hatsu Excel

Last reported at 2014-Oct-02 00:22 UTC. Time now 2014-Oct-02 02:33 UTC.
Position N 22°33' E 120°19'.

Type: Ship (hazmat cat D). MMSI: 235479000.

Date/timePositionNaut miles runAvg speedWind from/ knotsBaromVisibWave heightAir tempDewpointWater temp
2014-Oct-02 00:22N 22°33' E 120°19'0 0.0
2014-Oct-01 23:22N 22°33' E 120°19'0 0.0
2014-Oct-01 22:22N 22°33' E 120°19'0 0.0
2014-Oct-01 21:28N 22°33' E 120°19'0 0.0
2014-Oct-01 20:28N 22°33' E 120°19'0 0.0
2014-Oct-01 19:28N 22°33' E 120°19'0 0.0
2014-Oct-01 18:28N 22°33' E 120°19'0 0.0
2014-Oct-01 17:22N 22°33' E 120°19'0 0.1
2014-Oct-01 16:28N 22°33' E 120°19'0 0.1
2014-Oct-01 15:22N 22°33' E 120°19'0 0.0
2014-Oct-01 14:28N 22°33' E 120°19'0 0.1
2014-Oct-01 13:28N 22°33' E 120°19'0 0.1
2014-Oct-01 12:28N 22°33' E 120°19'0 0.0
2014-Oct-01 11:28N 22°33' E 120°19'0 0.1
2014-Oct-01 10:28N 22°33' E 120°19'0 0.1
2014-Oct-01 09:21N 22°33' E 120°19'0 0.0
2014-Oct-01 08:33N 22°33' E 120°19'0 0.0
2014-Oct-01 07:18N 22°33' E 120°19'0 0.0
2014-Oct-01 06:30N 22°33' E 120°19'0 0.0
2014-Oct-01 05:31N 22°33' E 120°19'0 0.0
2014-Oct-01 04:30N 22°33' E 120°19'0 0.0
2014-Oct-01 03:31N 22°33' E 120°19'0 0.0
2014-Oct-01 02:30N 22°33' E 120°19'0 0.0
2014-Oct-01 01:26N 22°33' E 120°19'0 0.0
2014-Oct-01 00:17N 22°33' E 120°19'0 0.0
2014-Sep-30 23:33N 22°33' E 120°19'0 0.0
2014-Sep-30 22:33N 22°33' E 120°19'2 1.5
2014-Sep-30 21:33N 22°33' E 120°17'2 2.2
2014-Sep-30 20:29N 22°31' E 120°16'0 0.0
2014-Sep-30 19:29N 22°31' E 120°16'0 0.0
2014-Sep-30 18:29N 22°31' E 120°16'0 0.1
2014-Sep-30 17:29N 22°31' E 120°16'0 0.1
2014-Sep-30 16:29N 22°31' E 120°16'0 0.1
2014-Sep-30 15:29N 22°31' E 120°16'0 0.0
2014-Sep-30 14:33N 22°31' E 120°16'4 3.5
2014-Sep-30 13:33N 22°30' E 120°13'1414.0
2014-Sep-30 12:34N 22°31' E 119°57'2914.3
2014-Sep-30 10:31N 22°28' E 119°26'1614.3
2014-Sep-30 09:25N 22°26' E 119°09'27915.6
2014-Sep-29 15:33N 22°19' E 114°07'0 0.0
2014-Sep-29 01:19N 22°20' E 114°07'17 1.7
2014-Sep-28 15:33N 22°34' E 114°16'0 0.0
2014-Sep-28 14:33N 22°34' E 114°16'0 0.0
2014-Sep-28 13:33N 22°34' E 114°16'0 0.0
2014-Sep-28 12:33N 22°34' E 114°16'0 0.0
2014-Sep-28 11:33N 22°34' E 114°16'0 0.0
2014-Sep-28 10:33N 22°34' E 114°16'0 0.0
2014-Sep-28 09:33N 22°34' E 114°16'0 0.0
2014-Sep-28 05:21N 22°34' E 114°16'0 0.0
2014-Sep-28 04:33N 22°34' E 114°16'0 0.0
2014-Sep-28 01:15N 22°34' E 114°16'0 0.0
2014-Sep-27 23:33N 22°34' E 114°16'0 0.0
2014-Sep-27 22:33N 22°34' E 114°16'0 0.0
2014-Sep-27 21:33N 22°34' E 114°16'0 0.0
2014-Sep-27 20:33N 22°34' E 114°16'0 0.0
2014-Sep-27 19:09N 22°34' E 114°16'0 0.0
2014-Sep-27 17:27N 22°34' E 114°16'0 0.0
2014-Sep-27 16:31N 22°34' E 114°16'  
2014-Sep-24 13:33N 01°15' E 104°03'1413.5
2014-Sep-24 12:33N 01°11' E 103°50'1212.3
2014-Sep-24 11:34N 01°04' E 103°40'1110.7
2014-Sep-24 10:33N 01°10' E 103°31'8 7.6
2014-Sep-24 09:33N 01°17' E 103°33'4 4.0
2014-Sep-24 08:29N 01°21' E 103°33'0 0.0
2014-Sep-24 07:32N 01°21' E 103°33'0 0.0
2014-Sep-24 06:33N 01°21' E 103°33'0 0.0
2014-Sep-24 05:33N 01°21' E 103°33'0 0.0
2014-Sep-24 04:33N 01°21' E 103°33'0 0.0
2014-Sep-24 03:33N 01°21' E 103°33'0 0.0
2014-Sep-24 02:33N 01°21' E 103°33'0 0.0
2014-Sep-24 01:33N 01°21' E 103°33'0 0.0
2014-Sep-24 00:33N 01°21' E 103°33'0 0.0
2014-Sep-23 23:33N 01°21' E 103°33'0 0.0
2014-Sep-23 22:33N 01°21' E 103°33'0 0.0
2014-Sep-23 21:33N 01°21' E 103°33'0 0.0
2014-Sep-23 20:33N 01°21' E 103°33'0 0.0
2014-Sep-23 19:33N 01°21' E 103°33'0 0.0
2014-Sep-23 18:33N 01°21' E 103°33'0 0.0
2014-Sep-23 17:33N 01°21' E 103°33'0 0.0
2014-Sep-23 16:33N 01°21' E 103°33'0 0.0
2014-Sep-23 15:33N 01°21' E 103°33'0 0.0
2014-Sep-23 14:33N 01°21' E 103°33'0 0.0
2014-Sep-23 13:33N 01°21' E 103°33'0 0.0
2014-Sep-23 12:33N 01°21' E 103°33'0 0.0
2014-Sep-23 11:33N 01°21' E 103°33'0 0.0
2014-Sep-23 10:33N 01°21' E 103°33'2 2.5
2014-Sep-23 09:33N 01°19' E 103°33'8 7.5
2014-Sep-23 08:33N 01°12' E 103°31'2 1.6
2014-Sep-23 07:33N 01°12' E 103°30'1 1.2
2014-Sep-23 06:33N 01°11' E 103°30'1 0.8
2014-Sep-23 05:33N 01°10' E 103°29'  
Track history (hours):
 
Tides and Currents Weather Stations Pressure Air Temp Water Temp Dewpoint Dewpoint Depression Visibility Wind Speed Wind Dir Waves Ship Positions

Hatsu Excel

Last reported at 2014-Oct-02 00:22 UTC. Time now 2014-Oct-02 02:33 UTC.
Position N 22°33' E 120°19'.

Type: Ship (hazmat cat D). MMSI: 235479000.

Date/timePositionNaut miles runAvg speedWind from/ knotsBaromVisibWave heightAir tempDewpointWater temp
2014-Oct-02 00:22N 22°33' E 120°19'0 0.0
2014-Oct-01 23:22N 22°33' E 120°19'0 0.0
2014-Oct-01 22:22N 22°33' E 120°19'0 0.0
2014-Oct-01 21:28N 22°33' E 120°19'0 0.0
2014-Oct-01 20:28N 22°33' E 120°19'0 0.0
2014-Oct-01 19:28N 22°33' E 120°19'0 0.0
2014-Oct-01 18:28N 22°33' E 120°19'0 0.0
2014-Oct-01 17:22N 22°33' E 120°19'0 0.1
2014-Oct-01 16:28N 22°33' E 120°19'0 0.1
2014-Oct-01 15:22N 22°33' E 120°19'0 0.0
2014-Oct-01 14:28N 22°33' E 120°19'0 0.1
2014-Oct-01 13:28N 22°33' E 120°19'0 0.1
2014-Oct-01 12:28N 22°33' E 120°19'0 0.0
2014-Oct-01 11:28N 22°33' E 120°19'0 0.1
2014-Oct-01 10:28N 22°33' E 120°19'0 0.1
2014-Oct-01 09:21N 22°33' E 120°19'0 0.0
2014-Oct-01 08:33N 22°33' E 120°19'0 0.0
2014-Oct-01 07:18N 22°33' E 120°19'0 0.0
2014-Oct-01 06:30N 22°33' E 120°19'0 0.0
2014-Oct-01 05:31N 22°33' E 120°19'0 0.0
2014-Oct-01 04:30N 22°33' E 120°19'0 0.0
2014-Oct-01 03:31N 22°33' E 120°19'0 0.0
2014-Oct-01 02:30N 22°33' E 120°19'0 0.0
2014-Oct-01 01:26N 22°33' E 120°19'0 0.0
2014-Oct-01 00:17N 22°33' E 120°19'0 0.0
2014-Sep-30 23:33N 22°33' E 120°19'0 0.0
2014-Sep-30 22:33N 22°33' E 120°19'2 1.5
2014-Sep-30 21:33N 22°33' E 120°17'2 2.2
2014-Sep-30 20:29N 22°31' E 120°16'0 0.0
2014-Sep-30 19:29N 22°31' E 120°16'0 0.0
2014-Sep-30 18:29N 22°31' E 120°16'0 0.1
2014-Sep-30 17:29N 22°31' E 120°16'0 0.1
2014-Sep-30 16:29N 22°31' E 120°16'0 0.1
2014-Sep-30 15:29N 22°31' E 120°16'0 0.0
2014-Sep-30 14:33N 22°31' E 120°16'4 3.5
2014-Sep-30 13:33N 22°30' E 120°13'1414.0
2014-Sep-30 12:34N 22°31' E 119°57'2914.3
2014-Sep-30 10:31N 22°28' E 119°26'1614.3
2014-Sep-30 09:25N 22°26' E 119°09'27915.6
2014-Sep-29 15:33N 22°19' E 114°07'0 0.0
2014-Sep-29 01:19N 22°20' E 114°07'17 1.7
2014-Sep-28 15:33N 22°34' E 114°16'0 0.0
2014-Sep-28 14:33N 22°34' E 114°16'0 0.0
2014-Sep-28 13:33N 22°34' E 114°16'0 0.0
2014-Sep-28 12:33N 22°34' E 114°16'0 0.0
2014-Sep-28 11:33N 22°34' E 114°16'0 0.0
2014-Sep-28 10:33N 22°34' E 114°16'0 0.0
2014-Sep-28 09:33N 22°34' E 114°16'0 0.0
2014-Sep-28 05:21N 22°34' E 114°16'0 0.0
2014-Sep-28 04:33N 22°34' E 114°16'0 0.0
2014-Sep-28 01:15N 22°34' E 114°16'0 0.0
2014-Sep-27 23:33N 22°34' E 114°16'0 0.0
2014-Sep-27 22:33N 22°34' E 114°16'0 0.0
2014-Sep-27 21:33N 22°34' E 114°16'0 0.0
2014-Sep-27 20:33N 22°34' E 114°16'0 0.0
2014-Sep-27 19:09N 22°34' E 114°16'0 0.0
2014-Sep-27 17:27N 22°34' E 114°16'0 0.0
2014-Sep-27 16:31N 22°34' E 114°16'  
2014-Sep-24 13:33N 01°15' E 104°03'1413.5
2014-Sep-24 12:33N 01°11' E 103°50'1212.3
2014-Sep-24 11:34N 01°04' E 103°40'1110.7
2014-Sep-24 10:33N 01°10' E 103°31'8 7.6
2014-Sep-24 09:33N 01°17' E 103°33'4 4.0
2014-Sep-24 08:29N 01°21' E 103°33'0 0.0
2014-Sep-24 07:32N 01°21' E 103°33'0 0.0
2014-Sep-24 06:33N 01°21' E 103°33'0 0.0
2014-Sep-24 05:33N 01°21' E 103°33'0 0.0
2014-Sep-24 04:33N 01°21' E 103°33'0 0.0
2014-Sep-24 03:33N 01°21' E 103°33'0 0.0
2014-Sep-24 02:33N 01°21' E 103°33'0 0.0
2014-Sep-24 01:33N 01°21' E 103°33'0 0.0
2014-Sep-24 00:33N 01°21' E 103°33'0 0.0
2014-Sep-23 23:33N 01°21' E 103°33'0 0.0
2014-Sep-23 22:33N 01°21' E 103°33'0 0.0
2014-Sep-23 21:33N 01°21' E 103°33'0 0.0
2014-Sep-23 20:33N 01°21' E 103°33'0 0.0
2014-Sep-23 19:33N 01°21' E 103°33'0 0.0
2014-Sep-23 18:33N 01°21' E 103°33'0 0.0
2014-Sep-23 17:33N 01°21' E 103°33'0 0.0
2014-Sep-23 16:33N 01°21' E 103°33'0 0.0
2014-Sep-23 15:33N 01°21' E 103°33'0 0.0
2014-Sep-23 14:33N 01°21' E 103°33'0 0.0
2014-Sep-23 13:33N 01°21' E 103°33'0 0.0
2014-Sep-23 12:33N 01°21' E 103°33'0 0.0
2014-Sep-23 11:33N 01°21' E 103°33'0 0.0
2014-Sep-23 10:33N 01°21' E 103°33'2 2.5
2014-Sep-23 09:33N 01°19' E 103°33'8 7.5
2014-Sep-23 08:33N 01°12' E 103°31'2 1.6
2014-Sep-23 07:33N 01°12' E 103°30'1 1.2
2014-Sep-23 06:33N 01°11' E 103°30'1 0.8
2014-Sep-23 05:33N 01°10' E 103°29'  

Dump ship's entire track history